Hurlburt Field, Florida
Current Conditions -  °F | °C
As of 3:58 AM on Sunday 26 Oct 2014 (Local Time) from KHRT Reporting Station
Clear Clear  
Wind Chill: 12°   Ceiling: Unl
Heat Index: 12°   Visibility: 10mi
Dew Point:   Wind: 3mph
Humidity: 83%   Direction: 360°N
Pressure: 30"   Gusts: NA
Location:  30.43°N, 86.69°W
Report Text: KHRT 260858Z AUTO 36003KT 10SM CLR 12/09 A3000 RMK AO2 SLP161 T01160088 58008 RVRNO $
Loading
Personal Weather Stations






























Interactive Weather Map
Tropical Storm Tracking
New forecast layout! Learn more

10-Day Weather Forecast

Advertisements
Track Severe Weather on mobile